Fleet, Virginia
Current Conditions -  °F | °C
As of 7:59 PM on Friday 19 Dec 2014 (Local Time) from KNGU Reporting Station
Broken Clouds Broken Clouds  
Wind Chill: 36°   Ceiling: 26000
Heat Index: 42°   Visibility: 10mi
Dew Point: 29°   Wind: 10mph
Humidity: 60%   Direction: 360°N
Pressure: 30.23"   Gusts: NA
Location:  36.9343°N, 76.284°W
Report Text: KNGU 200059Z 36009KT 10SM BKN260 06/M02 A3023 RMK AO2 SLP236 T00561017
Loading
Personal Weather Stations






























Interactive Weather Map New forecast layout! Learn more

10-Day Weather Forecast

Advertisements
Track Severe Weather on mobile